sensor_id;sensor_type;location;lat;lon;timestamp;P1;durP1;ratioP1;P2;durP2;ratioP2
12165;SDS011;6146;48.128;11.476;2023-11-21T00:00:44;4.40;;;1.90;;
12165;SDS011;6146;48.128;11.476;2023-11-21T00:03:10;3.13;;;1.53;;
12165;SDS011;6146;48.128;11.476;2023-11-21T00:05:39;5.57;;;2.00;;
12165;SDS011;6146;48.128;11.476;2023-11-21T00:08:06;6.77;;;2.10;;
12165;SDS011;6146;48.128;11.476;2023-11-21T00:10:32;5.17;;;2.23;;
12165;SDS011;6146;48.128;11.476;2023-11-21T00:12:59;3.43;;;1.93;;
12165;SDS011;6146;48.128;11.476;2023-11-21T00:15:24;2.57;;;1.40;;
12165;SDS011;6146;48.128;11.476;2023-11-21T00:17:51;5.80;;;2.17;;
12165;SDS011;6146;48.128;11.476;2023-11-21T00:20:16;5.07;;;2.30;;
12165;SDS011;6146;48.128;11.476;2023-11-21T00:22:42;5.13;;;1.47;;
12165;SDS011;6146;48.128;11.476;2023-11-21T00:25:08;3.13;;;1.73;;
12165;SDS011;6146;48.128;11.476;2023-11-21T00:27:34;3.57;;;1.50;;
12165;SDS011;6146;48.128;11.476;2023-11-21T00:30:00;5.87;;;1.70;;
12165;SDS011;6146;48.128;11.476;2023-11-21T00:32:26;3.93;;;1.90;;
12165;SDS011;6146;48.128;11.476;2023-11-21T00:34:51;6.77;;;1.70;;
12165;SDS011;6146;48.128;11.476;2023-11-21T00:37:17;3.33;;;1.70;;
12165;SDS011;6146;48.128;11.476;2023-11-21T00:39:42;3.13;;;1.70;;
12165;SDS011;6146;48.128;11.476;2023-11-21T00:42:08;2.90;;;1.50;;
12165;SDS011;6146;48.128;11.476;2023-11-21T00:44:37;2.93;;;2.13;;
12165;SDS011;6146;48.128;11.476;2023-11-21T00:47:03;4.40;;;1.90;;
12165;SDS011;6146;48.128;11.476;2023-11-21T00:49:29;4.23;;;1.60;;
12165;SDS011;6146;48.128;11.476;2023-11-21T00:51:54;3.07;;;1.40;;
12165;SDS011;6146;48.128;11.476;2023-11-21T00:54:20;3.70;;;2.23;;
12165;SDS011;6146;48.128;11.476;2023-11-21T00:56:46;3.90;;;1.83;;
12165;SDS011;6146;48.128;11.476;2023-11-21T00:59:13;3.87;;;1.40;;
12165;SDS011;6146;48.128;11.476;2023-11-21T01:01:38;2.73;;;1.27;;
12165;SDS011;6146;48.128;11.476;2023-11-21T01:04:04;3.10;;;1.60;;
12165;SDS011;6146;48.128;11.476;2023-11-21T01:06:31;4.23;;;1.70;;
12165;SDS011;6146;48.128;11.476;2023-11-21T01:08:57;5.07;;;1.70;;
12165;SDS011;6146;48.128;11.476;2023-11-21T01:11:23;5.27;;;1.80;;
12165;SDS011;6146;48.128;11.476;2023-11-21T01:13:48;4.53;;;1.97;;
12165;SDS011;6146;48.128;11.476;2023-11-21T01:16:14;3.57;;;1.90;;
12165;SDS011;6146;48.128;11.476;2023-11-21T01:18:39;2.33;;;1.50;;
12165;SDS011;6146;48.128;11.476;2023-11-21T01:21:05;3.33;;;1.63;;
12165;SDS011;6146;48.128;11.476;2023-11-21T01:23:32;4.13;;;1.80;;
12165;SDS011;6146;48.128;11.476;2023-11-21T01:25:58;3.53;;;1.60;;
12165;SDS011;6146;48.128;11.476;2023-11-21T01:28:23;3.03;;;1.60;;
12165;SDS011;6146;48.128;11.476;2023-11-21T01:30:49;4.83;;;1.90;;
12165;SDS011;6146;48.128;11.476;2023-11-21T01:33:15;4.93;;;1.80;;
12165;SDS011;6146;48.128;11.476;2023-11-21T01:35:40;3.97;;;2.03;;
12165;SDS011;6146;48.128;11.476;2023-11-21T01:38:11;4.83;;;1.70;;
12165;SDS011;6146;48.128;11.476;2023-11-21T01:40:37;4.90;;;1.70;;
12165;SDS011;6146;48.128;11.476;2023-11-21T01:43:02;4.40;;;1.50;;
12165;SDS011;6146;48.128;11.476;2023-11-21T01:45:28;3.93;;;2.17;;
12165;SDS011;6146;48.128;11.476;2023-11-21T01:47:56;3.67;;;2.03;;
12165;SDS011;6146;48.128;11.476;2023-11-21T01:50:23;7.63;;;1.80;;
12165;SDS011;6146;48.128;11.476;2023-11-21T01:52:49;4.03;;;1.80;;
12165;SDS011;6146;48.128;11.476;2023-11-21T01:55:16;3.13;;;1.73;;
12165;SDS011;6146;48.128;11.476;2023-11-21T01:57:45;1.57;;;1.43;;
12165;SDS011;6146;48.128;11.476;2023-11-21T02:00:11;2.13;;;1.60;;
12165;SDS011;6146;48.128;11.476;2023-11-21T02:02:44;4.77;;;1.87;;
12165;SDS011;6146;48.128;11.476;2023-11-21T02:05:11;2.43;;;1.50;;
12165;SDS011;6146;48.128;11.476;2023-11-21T02:07:37;3.57;;;1.60;;
12165;SDS011;6146;48.128;11.476;2023-11-21T02:10:07;3.60;;;1.93;;
12165;SDS011;6146;48.128;11.476;2023-11-21T02:12:34;3.43;;;1.50;;
12165;SDS011;6146;48.128;11.476;2023-11-21T02:15:04;5.77;;;2.10;;
12165;SDS011;6146;48.128;11.476;2023-11-21T02:17:34;2.63;;;1.60;;
12165;SDS011;6146;48.128;11.476;2023-11-21T02:20:00;4.63;;;2.03;;
12165;SDS011;6146;48.128;11.476;2023-11-21T02:22:26;5.10;;;1.80;;
12165;SDS011;6146;48.128;11.476;2023-11-21T02:24:56;4.30;;;2.07;;
12165;SDS011;6146;48.128;11.476;2023-11-21T02:27:22;3.67;;;1.70;;
12165;SDS011;6146;48.128;11.476;2023-11-21T02:29:48;3.30;;;1.70;;
12165;SDS011;6146;48.128;11.476;2023-11-21T02:32:14;5.13;;;1.60;;
12165;SDS011;6146;48.128;11.476;2023-11-21T02:34:41;2.77;;;1.43;;
12165;SDS011;6146;48.128;11.476;2023-11-21T02:37:08;2.53;;;1.70;;
12165;SDS011;6146;48.128;11.476;2023-11-21T02:39:35;3.83;;;1.30;;
12165;SDS011;6146;48.128;11.476;2023-11-21T02:42:00;2.10;;;1.33;;
12165;SDS011;6146;48.128;11.476;2023-11-21T02:44:26;2.37;;;1.40;;
12165;SDS011;6146;48.128;11.476;2023-11-21T02:46:51;4.33;;;1.53;;
12165;SDS011;6146;48.128;11.476;2023-11-21T02:49:17;3.17;;;1.70;;
12165;SDS011;6146;48.128;11.476;2023-11-21T02:51:42;3.80;;;1.63;;
12165;SDS011;6146;48.128;11.476;2023-11-21T02:54:08;2.93;;;1.70;;
12165;SDS011;6146;48.128;11.476;2023-11-21T02:56:34;3.47;;;1.60;;
12165;SDS011;6146;48.128;11.476;2023-11-21T02:59:00;2.77;;;1.90;;
12165;SDS011;6146;48.128;11.476;2023-11-21T03:01:25;3.43;;;1.63;;
12165;SDS011;6146;48.128;11.476;2023-11-21T03:03:52;4.63;;;1.90;;
12165;SDS011;6146;48.128;11.476;2023-11-21T03:06:18;4.80;;;1.60;;
12165;SDS011;6146;48.128;11.476;2023-11-21T03:08:44;3.17;;;1.60;;
12165;SDS011;6146;48.128;11.476;2023-11-21T03:11:10;4.43;;;1.50;;
12165;SDS011;6146;48.128;11.476;2023-11-21T03:13:37;2.87;;;1.50;;
12165;SDS011;6146;48.128;11.476;2023-11-21T03:16:09;2.27;;;1.40;;
12165;SDS011;6146;48.128;11.476;2023-11-21T03:18:36;4.87;;;1.47;;
12165;SDS011;6146;48.128;11.476;2023-11-21T03:21:05;2.90;;;1.73;;
12165;SDS011;6146;48.128;11.476;2023-11-21T03:23:32;3.63;;;1.40;;
12165;SDS011;6146;48.128;11.476;2023-11-21T03:25:58;5.07;;;1.40;;
12165;SDS011;6146;48.128;11.476;2023-11-21T03:28:24;3.43;;;1.30;;
12165;SDS011;6146;48.128;11.476;2023-11-21T03:30:51;4.63;;;1.80;;
12165;SDS011;6146;48.128;11.476;2023-11-21T03:33:17;2.30;;;1.37;;
12165;SDS011;6146;48.128;11.476;2023-11-21T03:35:42;5.13;;;1.70;;
12165;SDS011;6146;48.128;11.476;2023-11-21T03:38:09;1.93;;;1.17;;
12165;SDS011;6146;48.128;11.476;2023-11-21T03:40:35;2.20;;;1.40;;
12165;SDS011;6146;48.128;11.476;2023-11-21T03:43:01;2.67;;;1.20;;
12165;SDS011;6146;48.128;11.476;2023-11-21T03:45:26;1.50;;;1.30;;
12165;SDS011;6146;48.128;11.476;2023-11-21T03:47:52;2.60;;;1.17;;
12165;SDS011;6146;48.128;11.476;2023-11-21T03:50:17;3.73;;;1.57;;
12165;SDS011;6146;48.128;11.476;2023-11-21T03:52:43;3.57;;;1.40;;
12165;SDS011;6146;48.128;11.476;2023-11-21T03:55:09;2.47;;;1.00;;
12165;SDS011;6146;48.128;11.476;2023-11-21T03:57:35;2.17;;;1.20;;
12165;SDS011;6146;48.128;11.476;2023-11-21T04:00:01;2.53;;;1.30;;
12165;SDS011;6146;48.128;11.476;2023-11-21T04:02:29;4.47;;;1.33;;
12165;SDS011;6146;48.128;11.476;2023-11-21T04:04:56;4.63;;;1.17;;
12165;SDS011;6146;48.128;11.476;2023-11-21T04:07:22;1.30;;;1.00;;
12165;SDS011;6146;48.128;11.476;2023-11-21T04:09:47;3.90;;;1.50;;
12165;SDS011;6146;48.128;11.476;2023-11-21T04:12:13;1.20;;;1.10;;
12165;SDS011;6146;48.128;11.476;2023-11-21T04:14:39;2.90;;;1.20;;
12165;SDS011;6146;48.128;11.476;2023-11-21T04:17:04;2.80;;;0.93;;
12165;SDS011;6146;48.128;11.476;2023-11-21T04:19:30;3.13;;;1.27;;
12165;SDS011;6146;48.128;11.476;2023-11-21T04:21:56;1.90;;;1.23;;
12165;SDS011;6146;48.128;11.476;2023-11-21T04:24:21;3.73;;;1.77;;
12165;SDS011;6146;48.128;11.476;2023-11-21T04:26:47;1.57;;;1.03;;
12165;SDS011;6146;48.128;11.476;2023-11-21T04:29:12;2.23;;;1.30;;
12165;SDS011;6146;48.128;11.476;2023-11-21T04:31:38;3.60;;;1.10;;
12165;SDS011;6146;48.128;11.476;2023-11-21T04:34:03;2.77;;;1.57;;
12165;SDS011;6146;48.128;11.476;2023-11-21T04:36:29;3.70;;;1.40;;
12165;SDS011;6146;48.128;11.476;2023-11-21T04:38:56;1.47;;;1.10;;
12165;SDS011;6146;48.128;11.476;2023-11-21T04:41:21;2.43;;;1.00;;
12165;SDS011;6146;48.128;11.476;2023-11-21T04:43:47;1.80;;;1.30;;
12165;SDS011;6146;48.128;11.476;2023-11-21T04:46:13;2.07;;;1.10;;
12165;SDS011;6146;48.128;11.476;2023-11-21T04:48:39;3.77;;;1.40;;
12165;SDS011;6146;48.128;11.476;2023-11-21T04:51:05;4.80;;;1.37;;
12165;SDS011;6146;48.128;11.476;2023-11-21T04:53:31;4.00;;;1.37;;
12165;SDS011;6146;48.128;11.476;2023-11-21T04:55:57;3.07;;;1.43;;
12165;SDS011;6146;48.128;11.476;2023-11-21T04:58:22;3.27;;;1.80;;
12165;SDS011;6146;48.128;11.476;2023-11-21T05:00:48;7.40;;;1.80;;
12165;SDS011;6146;48.128;11.476;2023-11-21T05:03:14;2.57;;;1.47;;
12165;SDS011;6146;48.128;11.476;2023-11-21T05:05:40;1.57;;;1.20;;
12165;SDS011;6146;48.128;11.476;2023-11-21T05:08:05;2.73;;;1.40;;
12165;SDS011;6146;48.128;11.476;2023-11-21T05:10:31;1.27;;;1.10;;
12165;SDS011;6146;48.128;11.476;2023-11-21T05:12:56;2.27;;;1.07;;
12165;SDS011;6146;48.128;11.476;2023-11-21T05:15:23;2.53;;;1.20;;
12165;SDS011;6146;48.128;11.476;2023-11-21T05:17:49;2.67;;;1.17;;
12165;SDS011;6146;48.128;11.476;2023-11-21T05:20:17;2.10;;;1.30;;
12165;SDS011;6146;48.128;11.476;2023-11-21T05:22:45;2.47;;;1.07;;
12165;SDS011;6146;48.128;11.476;2023-11-21T05:25:13;3.63;;;1.47;;
12165;SDS011;6146;48.128;11.476;2023-11-21T05:27:38;1.93;;;1.00;;
12165;SDS011;6146;48.128;11.476;2023-11-21T05:30:04;2.33;;;1.00;;
12165;SDS011;6146;48.128;11.476;2023-11-21T05:32:34;1.97;;;1.00;;
12165;SDS011;6146;48.128;11.476;2023-11-21T05:34:59;2.73;;;1.30;;
12165;SDS011;6146;48.128;11.476;2023-11-21T05:37:25;1.53;;;1.17;;
12165;SDS011;6146;48.128;11.476;2023-11-21T05:39:52;1.40;;;1.30;;
12165;SDS011;6146;48.128;11.476;2023-11-21T05:42:19;1.57;;;0.80;;
12165;SDS011;6146;48.128;11.476;2023-11-21T05:44:45;1.93;;;0.87;;
12165;SDS011;6146;48.128;11.476;2023-11-21T05:47:11;1.77;;;1.00;;
12165;SDS011;6146;48.128;11.476;2023-11-21T05:49:38;0.87;;;0.80;;
12165;SDS011;6146;48.128;11.476;2023-11-21T05:52:04;1.73;;;1.00;;
12165;SDS011;6146;48.128;11.476;2023-11-21T05:54:30;3.17;;;1.17;;
12165;SDS011;6146;48.128;11.476;2023-11-21T05:56:56;1.23;;;0.80;;
12165;SDS011;6146;48.128;11.476;2023-11-21T05:59:22;2.00;;;1.10;;
12165;SDS011;6146;48.128;11.476;2023-11-21T06:01:47;2.23;;;1.10;;
12165;SDS011;6146;48.128;11.476;2023-11-21T06:04:13;2.20;;;1.20;;
12165;SDS011;6146;48.128;11.476;2023-11-21T06:06:38;2.37;;;1.20;;
12165;SDS011;6146;48.128;11.476;2023-11-21T06:09:04;1.30;;;1.20;;
12165;SDS011;6146;48.128;11.476;2023-11-21T06:11:31;2.60;;;1.20;;
12165;SDS011;6146;48.128;11.476;2023-11-21T06:13:56;1.30;;;1.00;;
12165;SDS011;6146;48.128;11.476;2023-11-21T06:16:23;1.33;;;1.10;;
12165;SDS011;6146;48.128;11.476;2023-11-21T06:18:49;1.77;;;1.10;;
12165;SDS011;6146;48.128;11.476;2023-11-21T06:21:15;2.70;;;1.13;;
12165;SDS011;6146;48.128;11.476;2023-11-21T06:23:41;1.23;;;0.90;;
12165;SDS011;6146;48.128;11.476;2023-11-21T06:26:07;2.50;;;1.30;;
12165;SDS011;6146;48.128;11.476;2023-11-21T06:28:34;3.23;;;1.50;;
12165;SDS011;6146;48.128;11.476;2023-11-21T06:31:00;1.43;;;1.23;;
12165;SDS011;6146;48.128;11.476;2023-11-21T06:33:33;2.53;;;1.40;;
12165;SDS011;6146;48.128;11.476;2023-11-21T06:35:59;1.93;;;1.00;;
12165;SDS011;6146;48.128;11.476;2023-11-21T06:38:28;2.43;;;1.30;;
12165;SDS011;6146;48.128;11.476;2023-11-21T06:40:55;2.43;;;1.17;;
12165;SDS011;6146;48.128;11.476;2023-11-21T06:43:23;2.97;;;1.30;;
12165;SDS011;6146;48.128;11.476;2023-11-21T06:45:48;1.10;;;1.00;;
12165;SDS011;6146;48.128;11.476;2023-11-21T06:48:14;2.97;;;1.10;;
12165;SDS011;6146;48.128;11.476;2023-11-21T06:50:40;3.33;;;1.57;;
12165;SDS011;6146;48.128;11.476;2023-11-21T06:53:06;2.20;;;1.53;;
12165;SDS011;6146;48.128;11.476;2023-11-21T06:55:33;2.00;;;1.00;;
12165;SDS011;6146;48.128;11.476;2023-11-21T06:57:58;2.13;;;1.00;;
12165;SDS011;6146;48.128;11.476;2023-11-21T07:00:25;1.60;;;1.20;;
12165;SDS011;6146;48.128;11.476;2023-11-21T07:02:52;3.00;;;1.17;;
12165;SDS011;6146;48.128;11.476;2023-11-21T07:05:19;3.63;;;1.40;;
12165;SDS011;6146;48.128;11.476;2023-11-21T07:07:46;0.80;;;0.77;;
12165;SDS011;6146;48.128;11.476;2023-11-21T07:10:13;2.30;;;1.00;;
12165;SDS011;6146;48.128;11.476;2023-11-21T07:12:39;2.40;;;1.10;;
12165;SDS011;6146;48.128;11.476;2023-11-21T07:15:05;1.60;;;1.00;;
12165;SDS011;6146;48.128;11.476;2023-11-21T07:17:34;1.17;;;0.90;;
12165;SDS011;6146;48.128;11.476;2023-11-21T07:20:00;2.03;;;0.97;;
12165;SDS011;6146;48.128;11.476;2023-11-21T07:22:26;2.67;;;1.10;;
12165;SDS011;6146;48.128;11.476;2023-11-21T07:24:52;1.53;;;1.00;;
12165;SDS011;6146;48.128;11.476;2023-11-21T07:27:18;2.03;;;1.00;;
12165;SDS011;6146;48.128;11.476;2023-11-21T07:29:44;2.97;;;1.10;;
12165;SDS011;6146;48.128;11.476;2023-11-21T07:32:10;4.17;;;1.10;;
12165;SDS011;6146;48.128;11.476;2023-11-21T07:34:36;2.77;;;0.90;;
12165;SDS011;6146;48.128;11.476;2023-11-21T07:37:02;1.17;;;0.90;;
12165;SDS011;6146;48.128;11.476;2023-11-21T07:39:28;1.27;;;1.10;;
12165;SDS011;6146;48.128;11.476;2023-11-21T07:41:54;1.00;;;0.90;;
12165;SDS011;6146;48.128;11.476;2023-11-21T07:44:19;1.10;;;0.90;;
12165;SDS011;6146;48.128;11.476;2023-11-21T07:46:45;1.67;;;1.00;;
12165;SDS011;6146;48.128;11.476;2023-11-21T07:49:11;0.90;;;0.90;;
12165;SDS011;6146;48.128;11.476;2023-11-21T07:51:41;0.93;;;0.87;;
12165;SDS011;6146;48.128;11.476;2023-11-21T07:54:07;1.53;;;0.97;;
12165;SDS011;6146;48.128;11.476;2023-11-21T07:56:32;1.20;;;1.03;;
12165;SDS011;6146;48.128;11.476;2023-11-21T07:58:58;0.60;;;0.60;;
12165;SDS011;6146;48.128;11.476;2023-11-21T08:01:23;1.53;;;0.80;;
12165;SDS011;6146;48.128;11.476;2023-11-21T08:03:49;1.13;;;0.90;;
12165;SDS011;6146;48.128;11.476;2023-11-21T08:06:17;1.20;;;0.80;;
12165;SDS011;6146;48.128;11.476;2023-11-21T08:08:43;1.77;;;1.30;;
12165;SDS011;6146;48.128;11.476;2023-11-21T08:11:08;2.10;;;1.10;;
12165;SDS011;6146;48.128;11.476;2023-11-21T08:13:35;1.50;;;1.10;;
12165;SDS011;6146;48.128;11.476;2023-11-21T08:16:00;3.27;;;1.37;;
12165;SDS011;6146;48.128;11.476;2023-11-21T08:18:30;2.87;;;1.30;;
12165;SDS011;6146;48.128;11.476;2023-11-21T08:20:56;1.17;;;1.07;;
12165;SDS011;6146;48.128;11.476;2023-11-21T08:23:22;1.00;;;0.87;;
12165;SDS011;6146;48.128;11.476;2023-11-21T08:25:51;1.00;;;0.97;;
12165;SDS011;6146;48.128;11.476;2023-11-21T08:28:18;0.80;;;0.80;;
12165;SDS011;6146;48.128;11.476;2023-11-21T08:30:44;1.23;;;1.00;;
12165;SDS011;6146;48.128;11.476;2023-11-21T08:33:09;1.63;;;1.10;;
12165;SDS011;6146;48.128;11.476;2023-11-21T08:35:36;1.00;;;0.87;;
12165;SDS011;6146;48.128;11.476;2023-11-21T08:38:03;1.43;;;0.90;;
12165;SDS011;6146;48.128;11.476;2023-11-21T08:40:28;2.10;;;0.83;;
12165;SDS011;6146;48.128;11.476;2023-11-21T08:42:54;1.53;;;1.10;;
12165;SDS011;6146;48.128;11.476;2023-11-21T08:45:21;1.23;;;1.10;;
12165;SDS011;6146;48.128;11.476;2023-11-21T08:47:47;2.13;;;1.10;;
12165;SDS011;6146;48.128;11.476;2023-11-21T08:50:13;1.30;;;1.20;;
12165;SDS011;6146;48.128;11.476;2023-11-21T08:52:39;1.70;;;1.00;;
12165;SDS011;6146;48.128;11.476;2023-11-21T08:55:05;1.47;;;1.03;;
12165;SDS011;6146;48.128;11.476;2023-11-21T08:57:37;1.40;;;1.13;;
12165;SDS011;6146;48.128;11.476;2023-11-21T09:00:04;0.90;;;0.80;;
12165;SDS011;6146;48.128;11.476;2023-11-21T09:02:33;1.83;;;1.03;;
12165;SDS011;6146;48.128;11.476;2023-11-21T09:04:59;1.23;;;1.00;;
12165;SDS011;6146;48.128;11.476;2023-11-21T09:07:28;1.00;;;0.80;;
12165;SDS011;6146;48.128;11.476;2023-11-21T09:09:54;1.50;;;1.00;;
12165;SDS011;6146;48.128;11.476;2023-11-21T09:12:20;1.60;;;1.10;;
12165;SDS011;6146;48.128;11.476;2023-11-21T09:14:46;1.30;;;1.20;;
12165;SDS011;6146;48.128;11.476;2023-11-21T09:17:12;1.63;;;1.20;;
12165;SDS011;6146;48.128;11.476;2023-11-21T09:19:39;1.83;;;1.10;;
12165;SDS011;6146;48.128;11.476;2023-11-21T09:22:05;1.50;;;1.10;;
12165;SDS011;6146;48.128;11.476;2023-11-21T09:24:31;1.43;;;1.00;;
12165;SDS011;6146;48.128;11.476;2023-11-21T09:26:57;1.80;;;1.33;;
12165;SDS011;6146;48.128;11.476;2023-11-21T09:29:24;1.63;;;1.13;;
12165;SDS011;6146;48.128;11.476;2023-11-21T09:31:51;1.77;;;1.10;;
12165;SDS011;6146;48.128;11.476;2023-11-21T09:34:16;1.20;;;0.90;;
12165;SDS011;6146;48.128;11.476;2023-11-21T09:36:45;3.00;;;1.00;;
12165;SDS011;6146;48.128;11.476;2023-11-21T09:39:11;1.03;;;0.93;;
12165;SDS011;6146;48.128;11.476;2023-11-21T09:41:52;1.30;;;0.90;;
12165;SDS011;6146;48.128;11.476;2023-11-21T09:44:35;1.67;;;0.87;;
12165;SDS011;6146;48.128;11.476;2023-11-21T09:47:07;2.10;;;1.20;;
12165;SDS011;6146;48.128;11.476;2023-11-21T09:49:35;1.73;;;1.20;;
12165;SDS011;6146;48.128;11.476;2023-11-21T09:52:03;1.40;;;0.97;;
12165;SDS011;6146;48.128;11.476;2023-11-21T09:54:31;2.00;;;1.50;;
12165;SDS011;6146;48.128;11.476;2023-11-21T09:56:58;1.87;;;0.97;;
12165;SDS011;6146;48.128;11.476;2023-11-21T09:59:24;2.27;;;1.20;;
12165;SDS011;6146;48.128;11.476;2023-11-21T10:01:55;2.30;;;1.20;;
12165;SDS011;6146;48.128;11.476;2023-11-21T10:04:23;1.93;;;0.93;;
12165;SDS011;6146;48.128;11.476;2023-11-21T10:06:49;1.73;;;1.20;;
12165;SDS011;6146;48.128;11.476;2023-11-21T10:09:16;1.00;;;0.90;;
12165;SDS011;6146;48.128;11.476;2023-11-21T10:11:44;2.20;;;1.20;;
12165;SDS011;6146;48.128;11.476;2023-11-21T10:14:10;2.67;;;1.43;;
12165;SDS011;6146;48.128;11.476;2023-11-21T10:16:40;2.03;;;1.10;;
12165;SDS011;6146;48.128;11.476;2023-11-21T10:19:08;2.37;;;1.10;;
12165;SDS011;6146;48.128;11.476;2023-11-21T10:21:35;1.20;;;1.10;;
12165;SDS011;6146;48.128;11.476;2023-11-21T10:24:02;3.10;;;1.20;;
12165;SDS011;6146;48.128;11.476;2023-11-21T10:26:28;1.70;;;1.17;;
12165;SDS011;6146;48.128;11.476;2023-11-21T10:29:00;4.20;;;1.30;;
12165;SDS011;6146;48.128;11.476;2023-11-21T10:31:28;1.63;;;1.33;;
12165;SDS011;6146;48.128;11.476;2023-11-21T10:34:18;1.13;;;1.03;;
12165;SDS011;6146;48.128;11.476;2023-11-21T10:36:43;1.20;;;1.10;;
12165;SDS011;6146;48.128;11.476;2023-11-21T10:39:13;1.67;;;1.10;;
12165;SDS011;6146;48.128;11.476;2023-11-21T10:41:46;2.17;;;1.20;;
12165;SDS011;6146;48.128;11.476;2023-11-21T10:44:15;2.30;;;1.20;;
12165;SDS011;6146;48.128;11.476;2023-11-21T10:46:46;3.03;;;1.00;;
12165;SDS011;6146;48.128;11.476;2023-11-21T10:49:15;2.60;;;1.27;;
12165;SDS011;6146;48.128;11.476;2023-11-21T10:51:44;1.07;;;1.07;;
12165;SDS011;6146;48.128;11.476;2023-11-21T10:54:10;3.77;;;1.40;;
12165;SDS011;6146;48.128;11.476;2023-11-21T10:56:37;1.43;;;1.20;;
12165;SDS011;6146;48.128;11.476;2023-11-21T10:59:07;1.87;;;1.50;;
12165;SDS011;6146;48.128;11.476;2023-11-21T11:01:36;1.30;;;1.00;;
12165;SDS011;6146;48.128;11.476;2023-11-21T11:04:02;1.30;;;1.20;;
12165;SDS011;6146;48.128;11.476;2023-11-21T11:06:34;4.33;;;1.40;;
12165;SDS011;6146;48.128;11.476;2023-11-21T11:09:00;3.07;;;1.27;;
12165;SDS011;6146;48.128;11.476;2023-11-21T11:11:27;1.53;;;1.10;;
12165;SDS011;6146;48.128;11.476;2023-11-21T11:13:55;1.67;;;1.07;;
12165;SDS011;6146;48.128;11.476;2023-11-21T11:16:21;1.10;;;1.00;;
12165;SDS011;6146;48.128;11.476;2023-11-21T11:18:49;1.10;;;1.00;;
12165;SDS011;6146;48.128;11.476;2023-11-21T11:24:08;2.27;;;1.30;;
12165;SDS011;6146;48.128;11.476;2023-11-21T11:32:58;1.73;;;1.20;;
12165;SDS011;6146;48.128;11.476;2023-11-21T11:35:34;1.70;;;1.10;;
12165;SDS011;6146;48.128;11.476;2023-11-21T11:38:12;1.63;;;1.13;;
12165;SDS011;6146;48.128;11.476;2023-11-21T11:40:41;1.83;;;1.30;;
12165;SDS011;6146;48.128;11.476;2023-11-21T11:43:10;1.90;;;1.27;;
12165;SDS011;6146;48.128;11.476;2023-11-21T11:45:36;3.93;;;1.20;;
12165;SDS011;6146;48.128;11.476;2023-11-21T11:48:10;3.67;;;1.27;;
12165;SDS011;6146;48.128;11.476;2023-11-21T11:50:41;1.37;;;1.23;;
12165;SDS011;6146;48.128;11.476;2023-11-21T11:53:28;1.40;;;1.30;;
12165;SDS011;6146;48.128;11.476;2023-11-21T11:58:54;1.73;;;1.00;;
12165;SDS011;6146;48.128;11.476;2023-11-21T12:01:21;2.10;;;1.17;;
12165;SDS011;6146;48.128;11.476;2023-11-21T12:06:42;1.70;;;1.47;;
12165;SDS011;6146;48.128;11.476;2023-11-21T12:09:12;1.90;;;1.30;;
12165;SDS011;6146;48.128;11.476;2023-11-21T12:11:49;1.87;;;1.40;;
12165;SDS011;6146;48.128;11.476;2023-11-21T12:14:15;2.23;;;1.50;;
12165;SDS011;6146;48.128;11.476;2023-11-21T12:16:42;2.90;;;1.20;;
12165;SDS011;6146;48.128;11.476;2023-11-21T12:19:08;1.13;;;1.00;;
12165;SDS011;6146;48.128;11.476;2023-11-21T12:21:37;1.33;;;1.20;;
12165;SDS011;6146;48.128;11.476;2023-11-21T12:24:03;1.83;;;1.10;;
12165;SDS011;6146;48.128;11.476;2023-11-21T12:26:33;2.93;;;1.30;;
12165;SDS011;6146;48.128;11.476;2023-11-21T12:28:59;1.10;;;0.90;;
12165;SDS011;6146;48.128;11.476;2023-11-21T12:31:26;1.00;;;0.90;;
12165;SDS011;6146;48.128;11.476;2023-11-21T12:33:53;1.00;;;0.90;;
12165;SDS011;6146;48.128;11.476;2023-11-21T12:36:19;1.63;;;0.90;;
12165;SDS011;6146;48.128;11.476;2023-11-21T12:38:45;1.10;;;1.00;;
12165;SDS011;6146;48.128;11.476;2023-11-21T12:41:10;2.17;;;1.20;;
12165;SDS011;6146;48.128;11.476;2023-11-21T12:43:36;1.70;;;1.07;;
12165;SDS011;6146;48.128;11.476;2023-11-21T12:46:06;2.00;;;1.33;;
12165;SDS011;6146;48.128;11.476;2023-11-21T12:48:38;1.70;;;0.90;;
12165;SDS011;6146;48.128;11.476;2023-11-21T12:51:07;1.00;;;0.93;;
12165;SDS011;6146;48.128;11.476;2023-11-21T12:53:33;1.97;;;1.03;;
12165;SDS011;6146;48.128;11.476;2023-11-21T12:56:06;2.17;;;1.27;;
12165;SDS011;6146;48.128;11.476;2023-11-21T12:58:34;1.07;;;0.97;;
12165;SDS011;6146;48.128;11.476;2023-11-21T13:01:04;2.07;;;1.50;;
12165;SDS011;6146;48.128;11.476;2023-11-21T13:03:36;1.80;;;1.30;;
12165;SDS011;6146;48.128;11.476;2023-11-21T13:06:03;1.70;;;1.20;;
12165;SDS011;6146;48.128;11.476;2023-11-21T13:08:30;1.73;;;1.30;;
12165;SDS011;6146;48.128;11.476;2023-11-21T13:10:56;5.07;;;1.60;;
12165;SDS011;6146;48.128;11.476;2023-11-21T13:13:22;2.77;;;1.73;;
12165;SDS011;6146;48.128;11.476;2023-11-21T13:15:50;2.10;;;1.40;;
12165;SDS011;6146;48.128;11.476;2023-11-21T13:18:17;2.73;;;1.40;;
12165;SDS011;6146;48.128;11.476;2023-11-21T13:20:43;1.97;;;1.20;;
12165;SDS011;6146;48.128;11.476;2023-11-21T13:23:10;2.17;;;1.10;;
12165;SDS011;6146;48.128;11.476;2023-11-21T13:25:41;1.70;;;1.03;;
12165;SDS011;6146;48.128;11.476;2023-11-21T13:28:07;2.37;;;0.90;;
12165;SDS011;6146;48.128;11.476;2023-11-21T13:30:34;2.13;;;1.20;;
12165;SDS011;6146;48.128;11.476;2023-11-21T13:33:01;3.43;;;1.87;;
12165;SDS011;6146;48.128;11.476;2023-11-21T13:35:32;1.47;;;1.20;;
12165;SDS011;6146;48.128;11.476;2023-11-21T13:38:12;1.37;;;1.27;;
12165;SDS011;6146;48.128;11.476;2023-11-21T13:40:39;1.60;;;1.10;;
12165;SDS011;6146;48.128;11.476;2023-11-21T13:43:12;1.20;;;1.00;;
12165;SDS011;6146;48.128;11.476;2023-11-21T13:45:39;1.30;;;1.13;;
12165;SDS011;6146;48.128;11.476;2023-11-21T13:48:05;2.37;;;1.30;;
12165;SDS011;6146;48.128;11.476;2023-11-21T13:50:44;2.23;;;1.37;;
12165;SDS011;6146;48.128;11.476;2023-11-21T13:53:28;1.50;;;1.10;;
12165;SDS011;6146;48.128;11.476;2023-11-21T13:55:54;3.53;;;1.37;;
12165;SDS011;6146;48.128;11.476;2023-11-21T13:58:22;4.40;;;3.00;;
12165;SDS011;6146;48.128;11.476;2023-11-21T14:01:09;1.37;;;1.27;;
12165;SDS011;6146;48.128;11.476;2023-11-21T14:03:59;2.73;;;1.30;;
12165;SDS011;6146;48.128;11.476;2023-11-21T14:06:41;1.70;;;1.20;;
12165;SDS011;6146;48.128;11.476;2023-11-21T14:09:23;1.40;;;1.30;;
12165;SDS011;6146;48.128;11.476;2023-11-21T14:11:54;2.30;;;1.63;;
12165;SDS011;6146;48.128;11.476;2023-11-21T14:14:22;2.63;;;1.83;;
12165;SDS011;6146;48.128;11.476;2023-11-21T14:16:50;2.43;;;1.60;;
12165;SDS011;6146;48.128;11.476;2023-11-21T14:19:16;1.27;;;1.17;;
12165;SDS011;6146;48.128;11.476;2023-11-21T14:21:43;0.80;;;0.80;;
12165;SDS011;6146;48.128;11.476;2023-11-21T14:24:09;1.00;;;1.00;;
12165;SDS011;6146;48.128;11.476;2023-11-21T14:26:38;1.43;;;1.00;;
12165;SDS011;6146;48.128;11.476;2023-11-21T14:29:07;1.00;;;1.00;;
12165;SDS011;6146;48.128;11.476;2023-11-21T14:31:33;1.27;;;0.80;;
12165;SDS011;6146;48.128;11.476;2023-11-21T14:33:59;1.27;;;0.80;;
12165;SDS011;6146;48.128;11.476;2023-11-21T14:36:27;0.47;;;0.47;;
12165;SDS011;6146;48.128;11.476;2023-11-21T14:38:53;0.80;;;0.80;;
12165;SDS011;6146;48.128;11.476;2023-11-21T14:41:19;0.90;;;0.90;;
12165;SDS011;6146;48.128;11.476;2023-11-21T14:43:44;1.20;;;0.87;;
12165;SDS011;6146;48.128;11.476;2023-11-21T14:46:12;1.20;;;1.10;;
12165;SDS011;6146;48.128;11.476;2023-11-21T14:48:42;0.97;;;0.97;;
12165;SDS011;6146;48.128;11.476;2023-11-21T14:51:10;0.80;;;0.80;;
12165;SDS011;6146;48.128;11.476;2023-11-21T14:53:55;0.63;;;0.60;;
12165;SDS011;6146;48.128;11.476;2023-11-21T14:56:25;1.27;;;0.80;;
12165;SDS011;6146;48.128;11.476;2023-11-21T14:58:56;0.83;;;0.83;;
12165;SDS011;6146;48.128;11.476;2023-11-21T15:01:23;1.70;;;1.10;;
12165;SDS011;6146;48.128;11.476;2023-11-21T15:04:07;1.70;;;0.90;;